createdAt,value
2022-09-22T00:01:44.448Z,8.00
2022-09-22T00:04:14.617Z,8.00
2022-09-22T00:06:47.779Z,7.90
2022-09-22T00:09:19.779Z,7.80
2022-09-22T00:11:51.757Z,7.80
2022-09-22T00:14:23.120Z,7.70
2022-09-22T00:16:54.279Z,7.70
2022-09-22T00:19:25.226Z,7.70
2022-09-22T00:21:54.537Z,7.70
2022-09-22T00:24:24.428Z,7.70
2022-09-22T00:26:58.157Z,7.80
2022-09-22T00:29:27.679Z,7.80
2022-09-22T00:31:57.665Z,7.90
2022-09-22T00:34:28.218Z,8.00
2022-09-22T00:36:57.287Z,8.10
2022-09-22T00:39:27.623Z,8.10
2022-09-22T00:41:58.378Z,8.20
2022-09-22T00:44:41.861Z,8.30
2022-09-22T00:47:27.518Z,8.30
2022-09-22T00:50:00.289Z,8.30
2022-09-22T00:56:14.508Z,8.40
2022-09-22T00:58:50.471Z,8.40
2022-09-22T01:01:19.957Z,8.50
2022-09-22T01:03:51.124Z,8.60
2022-09-22T01:06:23.791Z,8.60
2022-09-22T01:08:53.487Z,8.70
2022-09-22T01:11:22.825Z,8.80
2022-09-22T01:14:05.024Z,8.80
2022-09-22T01:16:44.190Z,8.90
2022-09-22T01:19:55.070Z,8.90
2022-09-22T01:22:43.650Z,9.00
2022-09-22T01:25:32.584Z,9.00
2022-09-22T01:28:33.180Z,9.10
2022-09-22T01:31:13.887Z,9.10
2022-09-22T01:33:46.424Z,9.20
2022-09-22T01:36:26.128Z,9.20
2022-09-22T01:39:04.479Z,9.20
2022-09-22T01:41:52.071Z,9.30
2022-09-22T01:44:27.304Z,9.30
2022-09-22T01:47:02.244Z,9.40
2022-09-22T01:49:36.849Z,9.40
2022-09-22T01:52:11.400Z,9.40
2022-09-22T01:54:45.754Z,9.40
2022-09-22T01:57:19.281Z,9.40
2022-09-22T01:59:53.532Z,9.50
2022-09-22T02:02:28.415Z,9.50
2022-09-22T02:05:01.312Z,9.50
2022-09-22T02:07:34.245Z,9.50
2022-09-22T02:10:07.852Z,9.50
2022-09-22T02:12:37.492Z,9.50
2022-09-22T02:15:27.760Z,9.60
2022-09-22T02:18:02.544Z,9.60
2022-09-22T02:20:31.921Z,9.60
2022-09-22T02:23:01.157Z,9.60
2022-09-22T02:25:30.891Z,9.60
2022-09-22T02:28:00.872Z,9.70
2022-09-22T02:30:30.235Z,9.60
2022-09-22T02:33:02.120Z,9.70
2022-09-22T02:35:34.993Z,9.70
2022-09-22T02:38:08.930Z,9.70
2022-09-22T02:40:46.891Z,9.60
2022-09-22T02:43:21.484Z,9.60
2022-09-22T02:45:56.699Z,9.70
2022-09-22T02:48:30.624Z,9.70
2022-09-22T02:50:59.664Z,9.70
2022-09-22T02:53:28.767Z,9.70
2022-09-22T02:55:57.913Z,9.70
2022-09-22T02:58:26.791Z,9.70
2022-09-22T03:00:55.685Z,9.80
2022-09-22T03:03:24.752Z,9.70
2022-09-22T03:05:55.304Z,9.70
2022-09-22T03:08:24.368Z,9.70
2022-09-22T03:10:53.440Z,9.70
2022-09-22T03:13:22.552Z,9.70
2022-09-22T03:15:51.514Z,9.70
2022-09-22T03:18:20.471Z,9.70
2022-09-22T03:20:49.312Z,9.70
2022-09-22T03:23:19.683Z,9.80
2022-09-22T03:25:48.800Z,9.70
2022-09-22T03:28:17.683Z,9.70
2022-09-22T03:30:46.656Z,9.70
2022-09-22T03:33:15.754Z,9.60
2022-09-22T03:35:44.783Z,9.50
2022-09-22T03:38:13.839Z,9.30
2022-09-22T03:40:50.951Z,9.20
2022-09-22T03:43:19.869Z,9.10
2022-09-22T03:45:48.837Z,8.90
2022-09-22T03:48:18.765Z,8.80
2022-09-22T03:50:47.580Z,8.80
2022-09-22T03:53:16.618Z,8.70
2022-09-22T03:55:47.045Z,8.70
2022-09-22T03:58:16.101Z,8.60
2022-09-22T04:00:45.320Z,8.70
2022-09-22T04:03:14.300Z,8.80
2022-09-22T04:05:51.132Z,9.00
2022-09-22T04:08:20.423Z,9.20
2022-09-22T04:10:50.992Z,9.20
2022-09-22T04:13:20.104Z,9.30
2022-09-22T04:15:49.040Z,9.40
2022-09-22T04:18:18.092Z,9.40
2022-09-22T04:20:47.504Z,9.50
2022-09-22T04:23:17.537Z,9.50
2022-09-22T04:25:46.479Z,9.50
2022-09-22T04:28:17.001Z,9.50
2022-09-22T04:30:45.837Z,9.50
2022-09-22T04:33:14.621Z,9.60
2022-09-22T04:35:43.748Z,9.60
2022-09-22T04:38:14.839Z,9.60
2022-09-22T04:40:44.013Z,9.60
2022-09-22T04:43:13.552Z,9.70
2022-09-22T04:45:46.136Z,9.70
2022-09-22T04:48:15.073Z,9.70
2022-09-22T04:50:48.114Z,9.70
2022-09-22T04:53:18.116Z,9.70
2022-09-22T04:55:46.988Z,9.80
2022-09-22T04:58:15.882Z,9.80
2022-09-22T05:00:46.300Z,9.80
2022-09-22T05:03:19.913Z,9.80
2022-09-22T05:05:51.033Z,9.80
2022-09-22T05:08:19.925Z,9.80
2022-09-22T05:10:48.984Z,9.90
2022-09-22T05:13:17.953Z,10.00
2022-09-22T05:15:48.352Z,10.10
2022-09-22T05:18:17.263Z,10.10
2022-09-22T05:20:46.432Z,10.20
2022-09-22T05:23:15.330Z,10.20
2022-09-22T05:25:44.659Z,10.30
2022-09-22T05:28:14.053Z,10.40
2022-09-22T05:30:42.988Z,10.60
2022-09-22T05:33:13.564Z,10.70
2022-09-22T05:35:43.219Z,10.80
2022-09-22T05:38:12.163Z,11.00
2022-09-22T05:40:41.482Z,11.10
2022-09-22T05:43:10.687Z,11.10
2022-09-22T05:45:39.641Z,11.30
2022-09-22T05:48:08.585Z,11.30
2022-09-22T05:50:39.038Z,11.40
2022-09-22T05:53:09.664Z,11.40
2022-09-22T05:55:40.534Z,11.50
2022-09-22T05:58:12.124Z,11.60
2022-09-22T06:00:42.286Z,11.70
2022-09-22T06:03:14.060Z,11.70
2022-09-22T06:05:46.260Z,11.60
2022-09-22T06:08:15.172Z,11.60
2022-09-22T06:10:45.665Z,11.60
2022-09-22T06:13:14.683Z,11.60
2022-09-22T06:15:46.993Z,11.50
2022-09-22T06:18:23.478Z,11.60
2022-09-22T06:20:57.743Z,11.70
2022-09-22T06:23:27.164Z,11.70
2022-09-22T06:25:59.770Z,11.80
2022-09-22T06:28:28.661Z,11.90
2022-09-22T06:31:01.129Z,11.90
2022-09-22T06:33:30.326Z,11.90
2022-09-22T06:36:04.023Z,11.90
2022-09-22T06:38:33.484Z,12.00
2022-09-22T06:41:03.366Z,12.10
2022-09-22T06:43:38.183Z,12.20
2022-09-22T06:46:07.348Z,12.20
2022-09-22T06:48:38.019Z,12.40
2022-09-22T06:51:10.478Z,12.50
2022-09-22T06:53:40.788Z,12.70
2022-09-22T06:56:09.891Z,12.70
2022-09-22T06:58:58.649Z,12.80
2022-09-22T07:01:32.028Z,13.00
2022-09-22T07:04:01.603Z,13.00
2022-09-22T07:06:31.988Z,13.20
2022-09-22T07:09:01.553Z,13.20
2022-09-22T07:11:30.607Z,13.40
2022-09-22T07:14:00.474Z,13.20
2022-09-22T07:16:29.472Z,13.30
2022-09-22T07:19:00.033Z,13.50
2022-09-22T07:21:35.311Z,13.80
2022-09-22T07:24:04.881Z,13.70
2022-09-22T07:26:35.721Z,13.90
2022-09-22T07:29:06.548Z,14.00
2022-09-22T07:31:36.970Z,14.00
2022-09-22T07:34:06.433Z,14.10
2022-09-22T07:36:38.499Z,14.20
2022-09-22T07:39:09.220Z,14.40
2022-09-22T07:41:42.011Z,14.50
2022-09-22T07:44:29.043Z,14.50
2022-09-22T07:46:57.965Z,14.60
2022-09-22T07:49:27.147Z,14.70
2022-09-22T07:51:57.907Z,14.90
2022-09-22T07:54:28.236Z,14.80
2022-09-22T07:56:59.103Z,15.00
2022-09-22T07:59:28.835Z,15.00
2022-09-22T08:01:58.489Z,15.10
2022-09-22T08:04:32.314Z,15.20
2022-09-22T08:07:02.639Z,15.30
2022-09-22T08:09:32.377Z,15.60
2022-09-22T08:12:02.540Z,15.60
2022-09-22T08:14:31.677Z,15.50
2022-09-22T08:17:00.580Z,15.40
2022-09-22T08:19:30.851Z,15.50
2022-09-22T08:21:59.784Z,15.60
2022-09-22T08:24:33.313Z,15.00
2022-09-22T08:27:02.222Z,15.00
2022-09-22T08:29:31.811Z,15.00
2022-09-22T08:32:00.754Z,15.10
2022-09-22T08:34:29.660Z,15.00
2022-09-22T08:36:58.698Z,15.40
2022-09-22T08:39:27.623Z,15.50
2022-09-22T08:42:07.582Z,15.50
2022-09-22T08:44:41.705Z,15.50
2022-09-22T08:47:39.904Z,15.40
2022-09-22T08:50:41.525Z,15.60
2022-09-22T08:53:16.265Z,15.70
2022-09-22T08:55:48.939Z,15.50
2022-09-22T08:58:30.421Z,15.70
2022-09-22T09:01:07.838Z,15.80
2022-09-22T09:03:55.243Z,15.90
2022-09-22T09:06:36.498Z,16.00
2022-09-22T09:09:29.761Z,16.10
2022-09-22T09:12:25.976Z,16.50
2022-09-22T09:15:11.021Z,16.30
2022-09-22T09:17:41.944Z,16.70
2022-09-22T09:20:18.464Z,17.00
2022-09-22T09:22:53.164Z,17.30
2022-09-22T09:25:28.347Z,17.50
2022-09-22T09:28:03.071Z,17.50
2022-09-22T09:30:40.125Z,17.70
2022-09-22T09:33:20.471Z,17.70
2022-09-22T09:35:53.376Z,17.40
2022-09-22T09:38:30.819Z,17.40
2022-09-22T09:41:09.785Z,17.60
2022-09-22T09:43:43.100Z,17.50
2022-09-22T09:46:27.011Z,17.20
2022-09-22T09:49:07.115Z,17.10
2022-09-22T09:51:41.132Z,16.80
2022-09-22T09:54:17.014Z,17.10
2022-09-22T09:57:07.826Z,17.10
2022-09-22T09:59:54.546Z,17.20
2022-09-22T10:02:28.983Z,17.40
2022-09-22T10:05:00.426Z,17.50
2022-09-22T10:10:33.261Z,17.70
2022-09-22T10:13:31.443Z,17.70
2022-09-22T10:16:22.437Z,17.70
2022-09-22T10:19:03.776Z,17.80
2022-09-22T10:21:32.892Z,17.90
2022-09-22T10:24:28.540Z,18.00
2022-09-22T10:26:57.722Z,18.10
2022-09-22T10:29:28.288Z,18.40
2022-09-22T10:32:07.944Z,18.40
2022-09-22T10:34:40.178Z,18.70
2022-09-22T10:37:12.233Z,18.50
2022-09-22T10:39:46.513Z,18.60
2022-09-22T10:42:33.096Z,18.40
2022-09-22T10:45:05.810Z,17.90
2022-09-22T10:47:44.165Z,17.80
2022-09-22T10:50:43.092Z,17.80
2022-09-22T10:53:40.412Z,18.20
2022-09-22T10:56:21.184Z,18.10
2022-09-22T10:59:13.524Z,18.10
2022-09-22T11:01:56.969Z,18.10
2022-09-22T11:04:43.509Z,17.70
2022-09-22T11:07:46.662Z,18.20
2022-09-22T11:10:43.283Z,18.50
2022-09-22T11:13:20.683Z,18.60
2022-09-22T11:16:17.308Z,19.00
2022-09-22T11:19:14.465Z,19.10
2022-09-22T11:21:54.763Z,18.70
2022-09-22T11:24:48.234Z,18.40
2022-09-22T11:27:24.682Z,18.30
2022-09-22T11:30:11.279Z,18.30
2022-09-22T11:33:11.321Z,18.60
2022-09-22T11:36:21.500Z,18.30
2022-09-22T11:39:21.689Z,18.70
2022-09-22T11:42:03.462Z,18.90
2022-09-22T11:44:42.668Z,19.10
2022-09-22T11:47:39.025Z,18.80
2022-09-22T11:50:39.986Z,18.50
2022-09-22T11:53:48.178Z,18.30
2022-09-22T11:56:38.852Z,18.10
2022-09-22T11:59:22.103Z,18.10
2022-09-22T12:01:53.921Z,18.10
2022-09-22T12:04:30.920Z,17.80
2022-09-22T12:07:02.318Z,17.70
2022-09-22T12:09:38.063Z,17.60
2022-09-22T12:12:11.982Z,17.60
2022-09-22T12:14:43.312Z,17.80
2022-09-22T12:17:22.949Z,17.80
2022-09-22T12:20:01.406Z,17.50
2022-09-22T12:22:34.923Z,17.50
2022-09-22T12:25:04.025Z,17.70
2022-09-22T12:27:34.295Z,17.40
2022-09-22T12:30:13.454Z,17.40
2022-09-22T12:32:46.219Z,17.30
2022-09-22T12:35:21.036Z,17.40
2022-09-22T12:37:54.361Z,17.50
2022-09-22T12:40:31.013Z,17.40
2022-09-22T12:43:01.324Z,17.60
2022-09-22T12:45:36.182Z,17.70
2022-09-22T12:48:12.491Z,17.70
2022-09-22T12:50:43.487Z,17.50
2022-09-22T12:53:25.422Z,17.20
2022-09-22T12:55:55.703Z,16.70
2022-09-22T12:58:46.510Z,16.30
2022-09-22T13:01:47.013Z,15.80
2022-09-22T13:04:19.783Z,15.80
2022-09-22T13:06:59.875Z,16.10
2022-09-22T13:09:32.163Z,16.40
2022-09-22T13:12:25.748Z,16.70
2022-09-22T13:15:18.212Z,17.00
2022-09-22T13:17:50.382Z,17.00
2022-09-22T13:20:25.767Z,17.20
2022-09-22T13:22:57.009Z,17.20
2022-09-22T13:25:31.616Z,17.30
2022-09-22T13:28:12.742Z,17.10
2022-09-22T13:30:43.500Z,17.50
2022-09-22T13:33:25.886Z,17.80
2022-09-22T13:36:03.353Z,18.00
2022-09-22T13:38:35.863Z,18.10
2022-09-22T13:41:05.981Z,18.50
2022-09-22T13:43:38.806Z,18.50
2022-09-22T13:46:17.146Z,18.10
2022-09-22T13:48:47.983Z,18.00
2022-09-22T13:51:18.204Z,17.60
2022-09-22T13:53:52.048Z,17.60
2022-09-22T13:56:23.863Z,17.40
2022-09-22T13:58:55.812Z,17.10
2022-09-22T14:01:27.212Z,16.90
2022-09-22T14:03:58.060Z,16.70
2022-09-22T14:06:30.483Z,16.50
2022-09-22T14:09:00.687Z,16.50
2022-09-22T14:11:32.646Z,16.50
2022-09-22T14:14:03.533Z,16.40
2022-09-22T14:16:37.484Z,16.20
2022-09-22T14:19:15.609Z,16.00
2022-09-22T14:21:53.669Z,15.80
2022-09-22T14:24:22.806Z,15.50
2022-09-22T14:26:54.272Z,15.20
2022-09-22T14:29:26.679Z,15.00
2022-09-22T14:32:01.160Z,14.90
2022-09-22T14:34:34.676Z,15.10
2022-09-22T14:37:16.822Z,15.30
2022-09-22T14:39:46.783Z,15.80
2022-09-22T14:42:23.231Z,16.30
2022-09-22T14:44:54.027Z,16.50
2022-09-22T14:47:26.443Z,16.80
2022-09-22T14:50:20.809Z,17.20
2022-09-22T14:52:59.701Z,17.70
2022-09-22T14:55:34.633Z,18.10
2022-09-22T14:58:08.132Z,18.20
2022-09-22T15:00:55.229Z,18.20
2022-09-22T15:03:27.806Z,18.20
2022-09-22T15:06:09.153Z,17.80
2022-09-22T15:08:38.556Z,17.60
2022-09-22T15:11:07.574Z,16.90
2022-09-22T15:13:42.011Z,16.40
2022-09-22T15:16:39.267Z,15.90
2022-09-22T15:19:13.441Z,15.60
2022-09-22T15:21:46.516Z,15.20
2022-09-22T15:24:16.775Z,15.00
2022-09-22T15:26:46.851Z,14.80
2022-09-22T15:29:16.516Z,14.60
2022-09-22T15:31:45.343Z,14.40
2022-09-22T15:34:17.232Z,14.20
2022-09-22T15:36:50.284Z,14.10
2022-09-22T15:39:22.673Z,14.00
2022-09-22T15:41:52.021Z,13.90
2022-09-22T15:44:20.940Z,13.80
2022-09-22T15:46:53.575Z,13.60
2022-09-22T15:49:26.712Z,13.50
2022-09-22T15:51:57.178Z,13.60
2022-09-22T15:54:27.789Z,13.30
2022-09-22T15:56:58.432Z,13.10
2022-09-22T15:59:29.399Z,13.00
2022-09-22T16:01:59.893Z,12.70
2022-09-22T16:04:34.459Z,12.60
2022-09-22T16:07:08.745Z,12.40
2022-09-22T16:09:37.963Z,12.30
2022-09-22T16:12:08.096Z,12.10
2022-09-22T16:14:37.176Z,12.00
2022-09-22T16:17:06.445Z,11.90
2022-09-22T16:19:35.501Z,11.80
2022-09-22T16:22:06.294Z,11.60
2022-09-22T16:24:35.169Z,11.50
2022-09-22T16:27:04.570Z,11.40
2022-09-22T16:29:33.861Z,11.20
2022-09-22T16:32:03.387Z,11.10
2022-09-22T16:34:32.413Z,10.90
2022-09-22T16:37:03.171Z,10.80
2022-09-22T16:39:33.527Z,10.70
2022-09-22T16:42:02.885Z,10.60
2022-09-22T16:44:31.866Z,10.60
2022-09-22T16:47:01.184Z,10.50
2022-09-22T16:49:30.226Z,10.40
2022-09-22T16:51:59.190Z,10.40
2022-09-22T16:54:28.609Z,10.40
2022-09-22T16:56:58.962Z,10.40
2022-09-22T16:59:28.258Z,10.40
2022-09-22T17:01:57.216Z,10.50
2022-09-22T17:04:26.279Z,10.50
2022-09-22T17:06:55.281Z,10.60
2022-09-22T17:09:24.270Z,10.60
2022-09-22T17:11:53.958Z,10.60
2022-09-22T17:14:24.929Z,10.60
2022-09-22T17:16:56.750Z,10.70
2022-09-22T17:19:26.890Z,10.60
2022-09-22T17:21:57.428Z,10.60
2022-09-22T17:24:28.057Z,10.60
2022-09-22T17:26:58.804Z,10.60
2022-09-22T17:29:32.974Z,10.60
2022-09-22T17:32:04.661Z,10.50
2022-09-22T17:34:34.884Z,10.50
2022-09-22T17:37:04.737Z,10.70
2022-09-22T17:39:33.867Z,10.30
2022-09-22T17:42:03.027Z,10.10
2022-09-22T17:44:34.051Z,9.90
2022-09-22T17:47:20.432Z,9.80
2022-09-22T17:50:06.734Z,9.60
2022-09-22T17:52:52.689Z,9.60
2022-09-22T17:55:25.813Z,9.50
2022-09-22T17:57:56.659Z,9.50
2022-09-22T18:00:27.115Z,9.60
2022-09-22T18:02:56.965Z,9.60
2022-09-22T18:05:28.225Z,9.60
2022-09-22T18:07:58.755Z,9.60
2022-09-22T18:10:34.363Z,9.50
2022-09-22T18:13:04.666Z,9.50
2022-09-22T18:15:37.407Z,9.40
2022-09-22T18:18:06.367Z,9.20
2022-09-22T18:20:35.230Z,9.00
2022-09-22T18:23:04.214Z,8.90
2022-09-22T18:25:34.284Z,8.90
2022-09-22T18:28:04.207Z,8.80
2022-09-22T18:30:34.929Z,8.70
2022-09-22T18:33:03.875Z,8.60
2022-09-22T18:35:33.369Z,8.60
2022-09-22T18:38:02.649Z,8.50
2022-09-22T18:40:32.650Z,8.50
2022-09-22T18:43:01.583Z,8.50
2022-09-22T18:45:31.107Z,8.50
2022-09-22T18:48:03.178Z,8.40
2022-09-22T18:50:35.431Z,8.40
2022-09-22T18:53:04.440Z,8.40
2022-09-22T18:55:33.473Z,8.40
2022-09-22T18:58:02.492Z,8.40
2022-09-22T19:00:31.792Z,8.40
2022-09-22T19:03:02.357Z,8.40
2022-09-22T19:05:31.356Z,8.50
2022-09-22T19:08:01.184Z,8.60
2022-09-22T19:10:30.079Z,8.70
2022-09-22T19:12:59.783Z,8.80
2022-09-22T19:15:29.234Z,8.90
2022-09-22T19:17:58.218Z,9.00
2022-09-22T19:20:29.118Z,9.00
2022-09-22T19:23:01.170Z,9.00
2022-09-22T19:25:30.482Z,8.90
2022-09-22T19:28:00.484Z,8.80
2022-09-22T19:30:31.592Z,8.80
2022-09-22T19:33:01.230Z,8.90
2022-09-22T19:35:33.298Z,9.00
2022-09-22T19:38:05.743Z,9.00
2022-09-22T19:40:34.998Z,9.10
2022-09-22T19:43:04.823Z,9.20
2022-09-22T19:45:33.824Z,9.40
2022-09-22T19:48:02.984Z,9.30
2022-09-22T19:50:33.657Z,9.40
2022-09-22T19:53:02.700Z,9.40
2022-09-22T19:55:32.119Z,9.50
2022-09-22T19:58:01.148Z,9.40
2022-09-22T20:00:32.211Z,9.40
2022-09-22T20:03:01.711Z,9.20
2022-09-22T20:05:36.602Z,9.10
2022-09-22T20:11:40.051Z,8.90
2022-09-22T20:14:22.710Z,8.70
2022-09-22T20:16:53.849Z,8.60
2022-09-22T20:19:23.753Z,8.60
2022-09-22T20:21:55.567Z,8.60
2022-09-22T20:24:25.237Z,8.50
2022-09-22T20:26:54.826Z,8.50
2022-09-22T20:29:23.718Z,8.50
2022-09-22T20:31:52.666Z,8.50
2022-09-22T20:34:21.613Z,8.50
2022-09-22T20:36:50.487Z,8.50
2022-09-22T20:39:20.863Z,8.40
2022-09-22T20:41:49.786Z,8.30
2022-09-22T20:44:18.638Z,8.20
2022-09-22T20:46:49.726Z,8.10
2022-09-22T20:49:19.805Z,7.90
2022-09-22T20:51:49.216Z,7.90
2022-09-22T20:54:20.306Z,7.80
2022-09-22T20:56:50.975Z,7.70
2022-09-22T20:59:20.102Z,7.70
2022-09-22T21:01:49.847Z,7.60
2022-09-22T21:04:19.146Z,7.60
2022-09-22T21:06:48.026Z,7.50
2022-09-22T21:09:34.187Z,7.50
2022-09-22T21:12:06.299Z,7.50
2022-09-22T21:14:35.371Z,7.40
2022-09-22T21:17:07.176Z,7.30
2022-09-22T21:19:36.739Z,7.30
2022-09-22T21:22:06.526Z,7.30
2022-09-22T21:24:35.483Z,7.20
2022-09-22T21:27:06.381Z,7.20
2022-09-22T21:29:35.278Z,7.20
2022-09-22T21:32:04.419Z,7.20
2022-09-22T21:34:33.326Z,7.20
2022-09-22T21:37:02.498Z,7.20
2022-09-22T21:39:31.438Z,7.20
2022-09-22T21:42:00.521Z,7.20
2022-09-22T21:44:30.871Z,7.20
2022-09-22T21:46:59.845Z,7.20
2022-09-22T21:49:28.681Z,7.20
2022-09-22T21:51:57.967Z,7.10
2022-09-22T21:54:26.797Z,7.10
2022-09-22T21:56:55.647Z,7.20
2022-09-22T21:59:24.607Z,7.20
2022-09-22T22:01:55.099Z,7.20
2022-09-22T22:04:24.098Z,7.30
2022-09-22T22:06:52.964Z,7.30
2022-09-22T22:09:27.648Z,7.30
2022-09-22T22:12:00.218Z,7.30
2022-09-22T22:14:33.747Z,7.30
2022-09-22T22:17:10.231Z,7.30
2022-09-22T22:19:54.145Z,7.20
2022-09-22T22:22:23.175Z,7.20
2022-09-22T22:24:51.876Z,7.20
2022-09-22T22:27:21.778Z,7.20
2022-09-22T22:29:51.293Z,7.30
2022-09-22T22:32:24.184Z,7.30
2022-09-22T22:34:55.998Z,7.30
2022-09-22T22:37:24.961Z,7.30
2022-09-22T22:39:53.948Z,7.20
2022-09-22T22:42:22.777Z,7.20
2022-09-22T22:44:51.755Z,7.10
2022-09-22T22:47:20.624Z,7.10
2022-09-22T22:49:51.797Z,7.00
2022-09-22T22:52:20.809Z,7.00
2022-09-22T22:54:49.845Z,7.00
2022-09-22T22:57:18.730Z,6.90
2022-09-22T22:59:47.706Z,6.90
2022-09-22T23:02:16.577Z,6.90
2022-09-22T23:04:45.557Z,6.80
2022-09-22T23:07:15.955Z,6.80
2022-09-22T23:09:45.045Z,6.80
2022-09-22T23:12:15.477Z,6.70
2022-09-22T23:14:44.457Z,6.70
2022-09-22T23:17:13.419Z,6.70
2022-09-22T23:19:42.465Z,6.70
2022-09-22T23:22:11.318Z,6.60
2022-09-22T23:24:41.697Z,6.60
2022-09-22T23:27:10.512Z,6.60
2022-09-22T23:29:39.865Z,6.50
2022-09-22T23:32:09.179Z,6.60
2022-09-22T23:34:38.066Z,6.50
2022-09-22T23:37:07.136Z,6.50
2022-09-22T23:39:36.077Z,6.50
2022-09-22T23:42:06.814Z,6.50
2022-09-22T23:44:35.725Z,6.50
2022-09-22T23:47:04.686Z,6.50
2022-09-22T23:49:33.534Z,6.50
2022-09-22T23:52:02.540Z,6.50
2022-09-22T23:54:33.183Z,6.40
2022-09-22T23:57:03.106Z,6.40
2022-09-22T23:59:33.435Z,6.40
